createdAt,value
2022-10-10T00:00:52.632Z,68.27
2022-10-10T00:01:52.665Z,70.27
2022-10-10T00:02:52.847Z,68.43
2022-10-10T00:03:52.607Z,67.46
2022-10-10T00:04:52.598Z,67.99
2022-10-10T00:05:52.588Z,69.70
2022-10-10T00:06:52.594Z,66.96
2022-10-10T00:07:52.564Z,68.05
2022-10-10T00:08:52.557Z,68.54
2022-10-10T00:09:52.547Z,69.00
2022-10-10T00:10:52.530Z,67.84
2022-10-10T00:11:52.547Z,69.10
2022-10-10T00:12:52.867Z,70.06
2022-10-10T00:13:52.510Z,70.82
2022-10-10T00:14:52.488Z,64.70
2022-10-10T00:15:52.495Z,68.52
2022-10-10T00:16:53.484Z,67.91
2022-10-10T00:17:52.464Z,67.46
2022-10-10T00:18:52.453Z,66.93
2022-10-10T00:19:52.445Z,67.14
2022-10-10T00:20:52.432Z,66.42
2022-10-10T00:21:52.437Z,67.09
2022-10-10T00:22:52.734Z,69.11
2022-10-10T00:23:52.404Z,69.41
2022-10-10T00:24:52.392Z,68.98
2022-10-10T00:25:52.392Z,70.46
2022-10-10T00:26:52.396Z,69.88
2022-10-10T00:27:52.361Z,71.16
2022-10-10T00:28:52.349Z,70.08
2022-10-10T00:29:52.345Z,70.18
2022-10-10T00:30:52.349Z,68.75
2022-10-10T00:31:52.342Z,68.08
2022-10-10T00:32:52.545Z,69.24
2022-10-10T00:33:52.300Z,70.71
2022-10-10T00:34:52.294Z,69.74
2022-10-10T00:35:52.276Z,71.27
2022-10-10T00:36:52.289Z,70.98
2022-10-10T00:37:52.268Z,70.10
2022-10-10T00:38:52.254Z,70.38
2022-10-10T00:39:52.236Z,69.64
2022-10-10T00:40:53.240Z,68.78
2022-10-10T00:41:52.246Z,71.25
2022-10-10T00:42:52.408Z,69.40
2022-10-10T00:43:52.200Z,64.18
2022-10-10T00:44:52.199Z,66.59
2022-10-10T00:45:52.182Z,69.14
2022-10-10T00:46:52.199Z,66.62
2022-10-10T00:47:52.164Z,67.84
2022-10-10T00:48:52.158Z,68.58
2022-10-10T00:49:52.145Z,67.89
2022-10-10T00:50:52.145Z,67.88
2022-10-10T00:51:52.140Z,67.28
2022-10-10T00:52:52.702Z,68.64
2022-10-10T00:53:52.111Z,66.19
2022-10-10T00:54:52.101Z,66.57
2022-10-10T00:55:52.090Z,66.13
2022-10-10T00:56:52.089Z,67.53
2022-10-10T00:57:52.121Z,65.06
2022-10-10T00:58:52.079Z,68.30
2022-10-10T00:59:52.065Z,68.69
2022-10-10T01:00:52.093Z,69.02
2022-10-10T01:01:52.038Z,68.62
2022-10-10T01:02:52.612Z,68.11
2022-10-10T01:03:52.024Z,67.45
2022-10-10T01:04:52.014Z,69.64
2022-10-10T01:05:52.014Z,69.52
2022-10-10T01:06:51.994Z,68.98
2022-10-10T01:07:51.999Z,69.86
2022-10-10T01:08:51.979Z,69.66
2022-10-10T01:09:51.970Z,69.05
2022-10-10T01:10:51.963Z,70.26
2022-10-10T01:11:51.945Z,71.24
2022-10-10T01:12:52.356Z,70.16
2022-10-10T01:13:51.924Z,69.15
2022-10-10T01:14:51.920Z,68.52
2022-10-10T01:15:51.905Z,69.40
2022-10-10T01:16:51.893Z,69.17
2022-10-10T01:17:51.907Z,68.44
2022-10-10T01:18:51.885Z,69.45
2022-10-10T01:19:51.873Z,66.76
2022-10-10T01:20:51.862Z,68.20
2022-10-10T01:21:51.860Z,68.55
2022-10-10T01:22:52.277Z,67.97
2022-10-10T01:23:51.842Z,68.81
2022-10-10T01:24:51.833Z,65.83
2022-10-10T01:25:51.822Z,64.86
2022-10-10T01:26:51.813Z,65.18
2022-10-10T01:27:51.818Z,67.28
2022-10-10T01:28:51.802Z,67.20
2022-10-10T01:29:51.778Z,68.62
2022-10-10T01:30:51.763Z,69.06
2022-10-10T01:31:51.762Z,68.85
2022-10-10T01:32:52.086Z,69.02
2022-10-10T01:33:51.734Z,68.44
2022-10-10T01:34:51.726Z,67.65
2022-10-10T01:35:51.717Z,68.81
2022-10-10T01:36:51.714Z,69.06
2022-10-10T01:37:51.711Z,68.14
2022-10-10T01:38:52.696Z,69.50
2022-10-10T01:39:51.675Z,68.40
2022-10-10T01:40:51.674Z,67.39
2022-10-10T01:41:51.662Z,68.45
2022-10-10T01:42:52.072Z,70.26
2022-10-10T01:43:51.637Z,68.16
2022-10-10T01:44:51.638Z,66.11
2022-10-10T01:45:51.620Z,67.82
2022-10-10T01:46:51.617Z,70.14
2022-10-10T01:47:51.623Z,69.85
2022-10-10T01:48:51.597Z,68.21
2022-10-10T01:49:51.587Z,68.44
2022-10-10T01:50:51.579Z,67.58
2022-10-10T01:51:51.570Z,66.91
2022-10-10T01:52:51.995Z,69.04
2022-10-10T01:53:51.559Z,68.73
2022-10-10T01:54:51.540Z,68.50
2022-10-10T01:55:51.553Z,69.23
2022-10-10T01:56:51.517Z,67.12
2022-10-10T01:57:51.529Z,66.80
2022-10-10T01:58:51.507Z,66.63
2022-10-10T01:59:51.492Z,68.35
2022-10-10T02:00:51.521Z,67.49
2022-10-10T02:01:51.468Z,66.81
2022-10-10T02:02:51.746Z,68.85
2022-10-10T02:03:51.449Z,67.51
2022-10-10T02:04:51.451Z,66.57
2022-10-10T02:05:51.439Z,70.05
2022-10-10T02:06:51.421Z,70.35
2022-10-10T02:07:51.429Z,69.63
2022-10-10T02:08:51.411Z,70.76
2022-10-10T02:09:51.392Z,70.45
2022-10-10T02:10:51.387Z,69.12
2022-10-10T02:11:51.380Z,68.69
2022-10-10T02:12:51.713Z,69.71
2022-10-10T02:13:51.361Z,68.96
2022-10-10T02:14:51.387Z,68.49
2022-10-10T02:15:51.352Z,70.51
2022-10-10T02:16:51.330Z,69.96
2022-10-10T02:17:51.344Z,70.13
2022-10-10T02:18:51.305Z,69.97
2022-10-10T02:19:51.299Z,71.10
2022-10-10T02:20:51.286Z,69.72
2022-10-10T02:21:51.290Z,69.53
2022-10-10T02:22:51.580Z,69.87
2022-10-10T02:23:51.271Z,70.34
2022-10-10T02:24:51.253Z,69.43
2022-10-10T02:25:51.312Z,70.14
2022-10-10T02:26:51.259Z,69.10
2022-10-10T02:27:51.243Z,69.15
2022-10-10T02:28:51.216Z,71.18
2022-10-10T02:29:51.219Z,70.83
2022-10-10T02:30:51.197Z,70.62
2022-10-10T02:31:51.186Z,70.19
2022-10-10T02:32:51.504Z,71.17
2022-10-10T02:33:51.172Z,68.81
2022-10-10T02:34:51.173Z,71.55
2022-10-10T02:35:51.147Z,72.69
2022-10-10T02:36:51.140Z,70.18
2022-10-10T02:37:51.181Z,69.48
2022-10-10T02:38:51.125Z,70.39
2022-10-10T02:39:51.118Z,69.62
2022-10-10T02:40:51.120Z,69.98
2022-10-10T02:41:51.094Z,69.16
2022-10-10T02:42:51.367Z,69.08
2022-10-10T02:43:51.077Z,68.06
2022-10-10T02:44:51.070Z,68.99
2022-10-10T02:45:51.089Z,68.56
2022-10-10T02:46:51.038Z,67.60
2022-10-10T02:47:51.058Z,68.18
2022-10-10T02:48:51.027Z,69.50
2022-10-10T02:49:51.019Z,70.14
2022-10-10T02:50:51.001Z,70.75
2022-10-10T02:51:50.998Z,69.63
2022-10-10T02:52:51.337Z,68.33
2022-10-10T02:53:50.974Z,69.25
2022-10-10T02:54:50.972Z,68.22
2022-10-10T02:55:50.961Z,68.91
2022-10-10T02:56:50.952Z,69.30
2022-10-10T02:57:50.959Z,69.85
2022-10-10T02:58:50.928Z,69.31
2022-10-10T02:59:50.919Z,71.41
2022-10-10T03:00:50.948Z,70.39
2022-10-10T03:01:50.894Z,69.36
2022-10-10T03:02:51.118Z,68.34
2022-10-10T03:03:50.886Z,68.43
2022-10-10T03:04:50.867Z,68.55
2022-10-10T03:05:50.859Z,70.21
2022-10-10T03:06:50.850Z,71.17
2022-10-10T03:07:50.856Z,70.50
2022-10-10T03:08:50.833Z,70.28
2022-10-10T03:09:50.815Z,70.61
2022-10-10T03:10:50.815Z,71.29
2022-10-10T03:11:50.809Z,70.44
2022-10-10T03:12:51.146Z,70.70
2022-10-10T03:13:50.768Z,72.51
2022-10-10T03:14:50.769Z,71.53
2022-10-10T03:15:50.753Z,71.71
2022-10-10T03:16:50.754Z,70.98
2022-10-10T03:17:50.761Z,70.74
2022-10-10T03:18:50.743Z,72.04
2022-10-10T03:19:50.712Z,71.37
2022-10-10T03:20:50.703Z,72.27
2022-10-10T03:21:50.704Z,70.52
2022-10-10T03:22:50.981Z,71.25
2022-10-10T03:23:50.678Z,71.69
2022-10-10T03:24:50.667Z,71.00
2022-10-10T03:25:50.694Z,72.15
2022-10-10T03:26:50.656Z,72.28
2022-10-10T03:27:50.658Z,72.77
2022-10-10T03:28:50.616Z,73.43
2022-10-10T03:29:51.615Z,73.13
2022-10-10T03:30:50.584Z,73.33
2022-10-10T03:31:50.591Z,73.24
2022-10-10T03:32:50.765Z,72.53
2022-10-10T03:33:50.565Z,71.91
2022-10-10T03:34:50.554Z,72.59
2022-10-10T03:35:50.553Z,72.38
2022-10-10T03:36:50.561Z,72.71
2022-10-10T03:37:50.542Z,72.18
2022-10-10T03:38:50.506Z,72.73
2022-10-10T03:39:50.515Z,72.50
2022-10-10T03:40:50.492Z,72.33
2022-10-10T03:41:50.515Z,69.61
2022-10-10T03:42:50.720Z,70.73
2022-10-10T03:43:50.479Z,71.88
2022-10-10T03:44:50.474Z,71.89
2022-10-10T03:45:50.491Z,72.07
2022-10-10T03:46:50.427Z,72.13
2022-10-10T03:47:50.470Z,73.37
2022-10-10T03:48:50.412Z,73.23
2022-10-10T03:49:50.415Z,72.04
2022-10-10T03:50:50.386Z,72.03
2022-10-10T03:51:50.386Z,71.12
2022-10-10T03:52:50.730Z,70.10
2022-10-10T03:53:50.392Z,72.17
2022-10-10T03:54:50.369Z,73.37
2022-10-10T03:55:50.352Z,71.63
2022-10-10T03:56:50.351Z,72.22
2022-10-10T03:57:50.355Z,71.87
2022-10-10T03:58:50.330Z,72.25
2022-10-10T03:59:50.308Z,73.02
2022-10-10T04:00:50.309Z,72.74
2022-10-10T04:01:50.291Z,74.00
2022-10-10T04:02:50.595Z,74.02
2022-10-10T04:03:52.281Z,72.12
2022-10-10T04:04:51.265Z,72.39
2022-10-10T04:05:50.245Z,72.80
2022-10-10T04:06:50.247Z,72.89
2022-10-10T04:07:50.250Z,72.73
2022-10-10T04:08:50.214Z,73.02
2022-10-10T04:09:50.205Z,72.70
2022-10-10T04:10:50.207Z,72.30
2022-10-10T04:11:50.217Z,73.31
2022-10-10T04:12:50.510Z,73.13
2022-10-10T04:13:50.192Z,72.95
2022-10-10T04:14:50.176Z,72.97
2022-10-10T04:15:50.152Z,72.62
2022-10-10T04:16:50.145Z,71.88
2022-10-10T04:17:50.134Z,72.07
2022-10-10T04:18:50.146Z,72.17
2022-10-10T04:19:50.118Z,72.65
2022-10-10T04:20:50.102Z,72.23
2022-10-10T04:21:50.089Z,73.31
2022-10-10T04:22:50.408Z,72.92
2022-10-10T04:23:50.093Z,72.34
2022-10-10T04:24:50.061Z,72.27
2022-10-10T04:25:50.054Z,71.58
2022-10-10T04:26:50.041Z,71.62
2022-10-10T04:27:50.050Z,71.29
2022-10-10T04:28:50.049Z,72.02
2022-10-10T04:29:50.011Z,71.05
2022-10-10T04:30:50.002Z,71.58
2022-10-10T04:31:49.988Z,70.24
2022-10-10T04:32:50.187Z,71.15
2022-10-10T04:33:49.990Z,71.95
2022-10-10T04:34:49.960Z,71.85
2022-10-10T04:35:49.949Z,71.90
2022-10-10T04:36:50.937Z,71.57
2022-10-10T04:37:49.938Z,71.31
2022-10-10T04:38:49.934Z,71.19
2022-10-10T04:39:49.909Z,70.51
2022-10-10T04:40:49.907Z,70.09
2022-10-10T04:41:49.937Z,70.51
2022-10-10T04:42:50.172Z,69.99
2022-10-10T04:43:49.889Z,70.18
2022-10-10T04:44:49.865Z,70.34
2022-10-10T04:45:49.850Z,69.73
2022-10-10T04:46:49.846Z,70.24
2022-10-10T04:47:49.836Z,69.07
2022-10-10T04:48:49.846Z,70.05
2022-10-10T04:49:49.813Z,70.35
2022-10-10T04:50:49.804Z,69.74
2022-10-10T04:51:49.796Z,70.32
2022-10-10T04:52:50.185Z,70.22
2022-10-10T04:53:50.707Z,71.63
2022-10-10T04:54:50.773Z,70.62
2022-10-10T04:55:49.745Z,69.75
2022-10-10T04:56:49.752Z,70.23
2022-10-10T04:57:49.739Z,70.32
2022-10-10T04:58:49.745Z,70.68
2022-10-10T04:59:49.723Z,70.18
2022-10-10T05:00:49.705Z,71.27
2022-10-10T05:01:49.708Z,70.16
2022-10-10T05:02:50.081Z,70.06
2022-10-10T05:03:49.706Z,69.71
2022-10-10T05:04:49.676Z,69.40
2022-10-10T05:05:49.666Z,70.22
2022-10-10T05:06:49.659Z,69.84
2022-10-10T05:07:54.466Z,69.94
2022-10-10T05:08:51.658Z,69.61
2022-10-10T05:09:49.628Z,71.00
2022-10-10T05:10:49.623Z,70.82
2022-10-10T05:11:49.610Z,71.06
2022-10-10T05:12:49.930Z,71.39
2022-10-10T05:13:50.604Z,70.54
2022-10-10T05:14:49.586Z,71.32
2022-10-10T05:15:49.577Z,71.61
2022-10-10T05:16:49.560Z,71.55
2022-10-10T05:17:49.554Z,71.98
2022-10-10T05:18:49.575Z,71.38
2022-10-10T05:19:49.530Z,70.82
2022-10-10T05:20:50.531Z,71.63
2022-10-10T05:21:49.515Z,72.76
2022-10-10T05:22:49.844Z,72.18
2022-10-10T05:23:49.518Z,72.23
2022-10-10T05:24:49.486Z,71.60
2022-10-10T05:25:49.479Z,70.70
2022-10-10T05:26:49.471Z,71.07
2022-10-10T05:27:49.465Z,71.87
2022-10-10T05:28:49.470Z,71.34
2022-10-10T05:29:49.436Z,70.75
2022-10-10T05:30:49.432Z,70.92
2022-10-10T05:31:49.423Z,70.47
2022-10-10T05:32:49.698Z,71.00
2022-10-10T05:33:49.439Z,71.24
2022-10-10T05:34:49.396Z,70.98
2022-10-10T05:35:49.390Z,71.46
2022-10-10T05:36:49.381Z,70.75
2022-10-10T05:37:49.366Z,72.30
2022-10-10T05:38:49.379Z,69.61
2022-10-10T05:39:54.396Z,70.45
2022-10-10T05:40:50.343Z,68.52
2022-10-10T05:41:49.331Z,71.26
2022-10-10T05:42:49.666Z,70.32
2022-10-10T05:43:49.336Z,70.88
2022-10-10T05:44:49.301Z,70.63
2022-10-10T05:45:49.301Z,70.35
2022-10-10T05:46:49.293Z,69.36
2022-10-10T05:47:49.282Z,71.51
2022-10-10T05:48:49.286Z,69.33
2022-10-10T05:49:49.262Z,69.50
2022-10-10T05:50:49.259Z,68.83
2022-10-10T05:51:49.244Z,69.49
2022-10-10T05:52:49.503Z,71.48
2022-10-10T05:53:49.238Z,69.54
2022-10-10T05:54:49.216Z,70.84
2022-10-10T05:55:49.201Z,68.76
2022-10-10T05:56:49.192Z,69.53
2022-10-10T05:57:49.205Z,70.10
2022-10-10T05:58:49.192Z,70.69
2022-10-10T05:59:49.175Z,69.40
2022-10-10T06:00:49.162Z,71.09
2022-10-10T06:01:49.157Z,69.18
2022-10-10T06:02:49.620Z,70.06
2022-10-10T06:03:49.158Z,69.51
2022-10-10T06:04:49.111Z,70.33
2022-10-10T06:05:49.130Z,70.43
2022-10-10T06:06:49.104Z,69.81
2022-10-10T06:08:09.268Z,70.58
2022-10-10T06:08:51.102Z,69.90
2022-10-10T06:09:49.069Z,70.14
2022-10-10T06:10:49.072Z,69.62
2022-10-10T06:11:49.053Z,70.11
2022-10-10T06:12:49.383Z,69.26
2022-10-10T06:13:49.054Z,69.31
2022-10-10T06:14:49.026Z,69.55
2022-10-10T06:15:49.014Z,69.66
2022-10-10T06:16:48.995Z,68.41
2022-10-10T06:17:49.019Z,68.76
2022-10-10T06:18:49.013Z,69.06
2022-10-10T06:19:48.985Z,69.20
2022-10-10T06:20:48.984Z,68.68
2022-10-10T06:21:48.957Z,69.16
2022-10-10T06:23:20.908Z,70.21
2022-10-10T06:23:48.966Z,69.10
2022-10-10T06:24:52.917Z,68.96
2022-10-10T06:25:49.924Z,69.19
2022-10-10T06:26:48.921Z,69.33
2022-10-10T06:27:48.905Z,69.32
2022-10-10T06:28:48.959Z,68.72
2022-10-10T06:29:48.884Z,69.76
2022-10-10T06:30:48.875Z,69.01
2022-10-10T06:31:48.868Z,70.07
2022-10-10T06:32:50.850Z,69.84
2022-10-10T06:33:48.887Z,69.27
2022-10-10T06:34:48.839Z,68.60
2022-10-10T06:35:48.827Z,68.93
2022-10-10T06:36:48.818Z,69.89
2022-10-10T06:37:48.806Z,70.53
2022-10-10T06:38:48.811Z,69.52
2022-10-10T06:39:48.785Z,68.63
2022-10-10T06:40:48.766Z,69.50
2022-10-10T06:41:48.764Z,69.14
2022-10-10T06:42:49.039Z,69.45
2022-10-10T06:43:48.760Z,69.67
2022-10-10T06:44:48.738Z,70.03
2022-10-10T06:45:48.728Z,69.24
2022-10-10T06:46:48.717Z,69.28
2022-10-10T06:47:48.704Z,68.57
2022-10-10T06:48:48.706Z,69.27
2022-10-10T06:49:48.720Z,68.29
2022-10-10T06:50:48.677Z,68.62
2022-10-10T06:51:48.714Z,69.28
2022-10-10T06:52:49.021Z,70.14
2022-10-10T06:53:48.658Z,70.03
2022-10-10T06:54:48.631Z,69.69
2022-10-10T06:55:48.621Z,69.59
2022-10-10T06:56:48.611Z,69.73
2022-10-10T06:57:48.605Z,69.68
2022-10-10T06:58:48.612Z,69.91
2022-10-10T06:59:48.582Z,69.91
2022-10-10T07:00:48.569Z,70.53
2022-10-10T07:01:48.597Z,68.45
2022-10-10T07:02:48.841Z,71.43
2022-10-10T07:03:48.541Z,69.56
2022-10-10T07:04:49.532Z,70.37
2022-10-10T07:05:48.514Z,71.27
2022-10-10T07:06:48.600Z,70.80
2022-10-10T07:07:48.494Z,70.42
2022-10-10T07:08:48.495Z,71.70
2022-10-10T07:09:48.467Z,71.69
2022-10-10T07:10:48.466Z,69.50
2022-10-10T07:11:48.453Z,71.74
2022-10-10T07:12:48.441Z,70.40
2022-10-10T07:13:48.447Z,71.36
2022-10-10T07:14:48.418Z,71.63
2022-10-10T07:15:48.409Z,71.13
2022-10-10T07:16:48.391Z,71.57
2022-10-10T07:17:54.172Z,71.90
2022-10-10T07:18:50.394Z,70.30
2022-10-10T07:19:48.371Z,70.95
2022-10-10T07:20:48.374Z,69.64
2022-10-10T07:21:48.335Z,69.75
2022-10-10T07:22:48.541Z,68.75
2022-10-10T07:23:48.340Z,68.94
2022-10-10T07:24:48.303Z,70.60
2022-10-10T07:25:48.299Z,74.62
2022-10-10T07:26:48.285Z,80.18
2022-10-10T07:27:48.271Z,75.12
2022-10-10T07:28:48.271Z,70.11
2022-10-10T07:29:48.250Z,68.03
2022-10-10T07:30:48.245Z,67.38
2022-10-10T07:31:48.229Z,68.09
2022-10-10T07:32:48.494Z,69.06
2022-10-10T07:33:50.491Z,68.50
2022-10-10T07:34:49.193Z,67.49
2022-10-10T07:35:48.186Z,67.26
2022-10-10T07:36:48.165Z,66.97
2022-10-10T07:37:48.166Z,65.73
2022-10-10T07:38:48.167Z,66.11
2022-10-10T07:39:48.144Z,66.12
2022-10-10T07:40:48.129Z,67.74
2022-10-10T07:41:48.119Z,65.29
2022-10-10T07:42:48.308Z,65.52
2022-10-10T07:43:48.131Z,65.45
2022-10-10T07:44:48.084Z,66.16
2022-10-10T07:45:48.125Z,66.30
2022-10-10T07:46:48.071Z,65.89
2022-10-10T07:47:48.364Z,66.26
2022-10-10T07:48:48.067Z,67.24
2022-10-10T07:49:48.034Z,67.42
2022-10-10T07:50:48.039Z,66.16
2022-10-10T07:51:48.015Z,65.44
2022-10-10T07:52:48.001Z,66.25
2022-10-10T07:53:48.010Z,65.71
2022-10-10T07:54:47.977Z,64.19
2022-10-10T07:55:47.976Z,64.02
2022-10-10T07:56:47.960Z,64.72
2022-10-10T07:57:53.089Z,65.24
2022-10-10T07:58:49.965Z,64.98
2022-10-10T07:59:47.938Z,64.39
2022-10-10T08:00:48.012Z,66.57
2022-10-10T08:01:48.001Z,66.01
2022-10-10T08:02:47.904Z,63.95
2022-10-10T08:03:47.913Z,65.92
2022-10-10T08:04:47.880Z,65.52
2022-10-10T08:05:47.877Z,64.12
2022-10-10T08:06:47.876Z,66.05
2022-10-10T08:07:47.867Z,65.95
2022-10-10T08:08:51.374Z,64.49
2022-10-10T08:09:47.848Z,65.13
2022-10-10T08:10:47.912Z,65.99
2022-10-10T08:11:47.826Z,65.77
2022-10-10T08:12:47.813Z,64.62
2022-10-10T08:13:47.821Z,64.90
2022-10-10T08:14:47.785Z,62.85
2022-10-10T08:15:47.774Z,64.98
2022-10-10T08:16:47.753Z,63.90
2022-10-10T08:17:47.820Z,63.70
2022-10-10T08:18:47.817Z,64.65
2022-10-10T08:19:47.741Z,63.61
2022-10-10T08:20:47.725Z,63.99
2022-10-10T08:21:47.752Z,64.44
2022-10-10T08:22:47.947Z,63.30
2022-10-10T08:23:47.723Z,62.25
2022-10-10T08:24:47.679Z,64.19
2022-10-10T08:25:47.680Z,64.36
2022-10-10T08:26:47.672Z,63.28
2022-10-10T08:27:47.672Z,63.65
2022-10-10T08:28:47.688Z,64.14
2022-10-10T08:29:47.644Z,64.29
2022-10-10T08:30:47.631Z,64.30
2022-10-10T08:31:47.640Z,63.38
2022-10-10T08:32:47.642Z,64.77
2022-10-10T08:33:47.617Z,64.64
2022-10-10T08:34:47.597Z,62.70
2022-10-10T08:35:47.587Z,63.40
2022-10-10T08:36:47.576Z,62.47
2022-10-10T08:37:47.568Z,64.42
2022-10-10T08:38:47.583Z,64.45
2022-10-10T08:39:47.547Z,64.10
2022-10-10T08:40:47.553Z,62.75
2022-10-10T08:41:47.531Z,63.87
2022-10-10T08:42:52.509Z,63.08
2022-10-10T08:43:49.534Z,63.66
2022-10-10T08:44:47.503Z,64.47
2022-10-10T08:45:47.491Z,62.63
2022-10-10T08:46:47.481Z,62.62
2022-10-10T08:47:47.473Z,63.06
2022-10-10T08:48:47.476Z,62.63
2022-10-10T08:49:47.448Z,62.73
2022-10-10T08:50:47.442Z,66.15
2022-10-10T08:51:47.438Z,63.69
2022-10-10T08:52:47.417Z,63.10
2022-10-10T08:53:47.426Z,64.04
2022-10-10T08:54:47.391Z,64.27
2022-10-10T08:55:47.389Z,65.09
2022-10-10T08:56:47.371Z,63.15
2022-10-10T08:57:47.363Z,64.02
2022-10-10T08:58:47.428Z,63.27
2022-10-10T08:59:47.389Z,62.66
2022-10-10T09:00:47.411Z,65.53
2022-10-10T09:02:18.078Z,63.55
2022-10-10T09:02:54.128Z,62.49
2022-10-10T09:03:49.327Z,61.84
2022-10-10T09:04:47.309Z,63.26
2022-10-10T09:05:47.288Z,64.20
2022-10-10T09:06:47.280Z,64.15
2022-10-10T09:07:47.272Z,62.42
2022-10-10T09:08:47.272Z,62.15
2022-10-10T09:09:47.248Z,64.10
2022-10-10T09:10:47.246Z,62.90
2022-10-10T09:11:47.230Z,63.11
2022-10-10T09:12:47.219Z,63.26
2022-10-10T09:13:47.234Z,63.13
2022-10-10T09:14:47.204Z,61.17
2022-10-10T09:15:47.193Z,62.92
2022-10-10T09:16:47.162Z,63.20
2022-10-10T09:17:47.172Z,62.99
2022-10-10T09:18:47.181Z,63.03
2022-10-10T09:19:47.146Z,63.24
2022-10-10T09:20:47.128Z,63.65
2022-10-10T09:21:47.123Z,63.94
2022-10-10T09:22:47.119Z,64.06
2022-10-10T09:23:47.120Z,63.77
2022-10-10T09:24:47.090Z,64.12
2022-10-10T09:25:47.081Z,63.12
2022-10-10T09:26:47.077Z,62.13
2022-10-10T09:27:47.067Z,63.72
2022-10-10T09:28:47.089Z,63.19
2022-10-10T09:29:47.046Z,63.51
2022-10-10T09:30:47.032Z,64.66
2022-10-10T09:31:47.035Z,65.02
2022-10-10T09:32:47.015Z,65.02
2022-10-10T09:33:47.016Z,64.83
2022-10-10T09:34:47.003Z,64.41
2022-10-10T09:35:46.997Z,65.01
2022-10-10T09:36:46.977Z,65.08
2022-10-10T09:37:48.126Z,64.23
2022-10-10T09:38:47.984Z,66.39
2022-10-10T09:39:47.020Z,64.65
2022-10-10T09:40:46.933Z,65.40
2022-10-10T09:41:46.926Z,64.05
2022-10-10T09:42:46.914Z,63.10
2022-10-10T09:43:46.921Z,63.33
2022-10-10T09:44:46.897Z,63.28
2022-10-10T09:45:46.877Z,63.21
2022-10-10T09:46:46.879Z,63.11
2022-10-10T09:47:46.866Z,64.25
2022-10-10T09:48:46.868Z,62.67
2022-10-10T09:49:46.871Z,61.78
2022-10-10T09:50:46.841Z,61.74
2022-10-10T09:51:46.818Z,62.24
2022-10-10T09:52:46.817Z,62.19
2022-10-10T09:53:46.815Z,61.02
2022-10-10T09:54:46.790Z,61.91
2022-10-10T09:55:46.778Z,62.34
2022-10-10T09:56:46.776Z,62.20
2022-10-10T09:57:46.756Z,62.28
2022-10-10T09:58:46.765Z,62.17
2022-10-10T09:59:46.823Z,61.31
2022-10-10T10:00:46.776Z,62.55
2022-10-10T10:01:46.723Z,63.35
2022-10-10T10:02:46.707Z,63.45
2022-10-10T10:03:46.764Z,63.09
2022-10-10T10:04:46.687Z,61.59
2022-10-10T10:05:46.679Z,62.46
2022-10-10T10:06:46.671Z,61.97
2022-10-10T10:07:46.660Z,61.75
2022-10-10T10:08:49.850Z,62.46
2022-10-10T10:09:47.660Z,62.59
2022-10-10T10:10:46.625Z,61.50
2022-10-10T10:11:46.620Z,62.74
2022-10-10T10:12:46.609Z,62.36
2022-10-10T10:13:46.615Z,61.79
2022-10-10T10:14:46.579Z,63.29
2022-10-10T10:15:46.573Z,63.78
2022-10-10T10:16:46.570Z,63.04
2022-10-10T10:17:46.559Z,63.14
2022-10-10T10:18:46.591Z,63.26
2022-10-10T10:19:46.540Z,63.86
2022-10-10T10:20:46.531Z,62.94
2022-10-10T10:21:46.529Z,62.27
2022-10-10T10:22:46.551Z,63.45
2022-10-10T10:23:46.528Z,63.03
2022-10-10T10:24:46.523Z,62.45
2022-10-10T10:25:46.481Z,62.52
2022-10-10T10:26:46.471Z,62.48
2022-10-10T10:27:46.464Z,63.07
2022-10-10T10:28:46.520Z,61.83
2022-10-10T10:29:46.447Z,61.48
2022-10-10T10:30:46.435Z,63.01
2022-10-10T10:31:46.415Z,64.03
2022-10-10T10:32:46.425Z,63.49
2022-10-10T10:33:46.425Z,64.24
2022-10-10T10:34:46.393Z,65.32
2022-10-10T10:35:46.390Z,64.10
2022-10-10T10:36:46.384Z,66.19
2022-10-10T10:37:46.372Z,65.07
2022-10-10T10:38:46.375Z,65.64
2022-10-10T10:39:46.344Z,62.21
2022-10-10T10:40:46.337Z,64.00
2022-10-10T10:41:46.324Z,62.28
2022-10-10T10:42:46.356Z,63.97
2022-10-10T10:43:46.322Z,62.87
2022-10-10T10:44:46.307Z,65.11
2022-10-10T10:45:46.294Z,64.55
2022-10-10T10:46:46.261Z,64.53
2022-10-10T10:47:46.262Z,64.97
2022-10-10T10:48:46.281Z,63.06
2022-10-10T10:49:46.245Z,64.72
2022-10-10T10:50:46.324Z,64.39
2022-10-10T10:51:46.228Z,64.61
2022-10-10T10:52:46.213Z,65.41
2022-10-10T10:53:46.224Z,64.92
2022-10-10T10:54:46.203Z,64.45
2022-10-10T10:55:46.182Z,65.10
2022-10-10T10:56:46.184Z,64.06
2022-10-10T10:58:04.796Z,64.42
2022-10-10T11:00:21.646Z,64.20
2022-10-10T11:01:23.794Z,62.12
2022-10-10T11:01:57.778Z,64.02
2022-10-10T11:02:59.617Z,63.19
2022-10-10T11:05:20.844Z,63.50
2022-10-10T11:05:24.937Z,63.03
2022-10-10T11:05:47.218Z,63.04
2022-10-10T11:07:06.316Z,63.74
2022-10-10T11:07:47.140Z,64.01
2022-10-10T11:08:46.072Z,63.18
2022-10-10T11:09:49.957Z,63.43
2022-10-10T11:10:47.031Z,64.04
2022-10-10T11:11:46.029Z,63.01
2022-10-10T11:12:46.016Z,63.48
2022-10-10T11:13:46.029Z,63.32
2022-10-10T11:14:45.993Z,63.28
2022-10-10T11:16:49.149Z,62.72
2022-10-10T11:17:46.972Z,64.03
2022-10-10T11:18:45.973Z,63.25
2022-10-10T11:19:45.952Z,62.56
2022-10-10T11:20:45.939Z,62.69
2022-10-10T11:21:45.923Z,63.16
2022-10-10T11:22:46.899Z,62.08
2022-10-10T11:23:45.948Z,62.85
2022-10-10T11:24:45.906Z,62.56
2022-10-10T11:25:45.887Z,63.27
2022-10-10T11:26:45.867Z,61.99
2022-10-10T11:27:45.869Z,62.70
2022-10-10T11:28:49.318Z,62.49
2022-10-10T11:29:46.844Z,62.04
2022-10-10T11:30:45.832Z,62.45
2022-10-10T11:31:45.830Z,61.54
2022-10-10T11:32:45.819Z,61.99
2022-10-10T11:33:45.832Z,62.27
2022-10-10T11:34:45.802Z,62.21
2022-10-10T11:35:45.790Z,62.20
2022-10-10T11:36:45.778Z,61.36
2022-10-10T11:37:45.763Z,63.27
2022-10-10T11:38:45.864Z,62.84
2022-10-10T11:39:45.755Z,62.97
2022-10-10T11:40:45.750Z,63.40
2022-10-10T11:41:45.737Z,62.23
2022-10-10T11:42:45.718Z,62.06
2022-10-10T11:43:45.741Z,63.00
2022-10-10T11:44:45.697Z,63.41
2022-10-10T11:45:45.702Z,62.33
2022-10-10T11:46:45.713Z,62.72
2022-10-10T11:47:45.684Z,62.01
2022-10-10T11:48:45.688Z,62.93
2022-10-10T11:49:45.638Z,64.52
2022-10-10T11:50:45.643Z,64.12
2022-10-10T11:51:45.634Z,63.78
2022-10-10T11:52:45.624Z,63.84
2022-10-10T11:53:45.623Z,63.86
2022-10-10T11:54:45.600Z,64.52
2022-10-10T11:55:45.588Z,64.22
2022-10-10T11:56:45.583Z,64.05
2022-10-10T11:57:45.561Z,64.64
2022-10-10T11:58:45.580Z,64.36
2022-10-10T11:59:45.543Z,62.64
2022-10-10T12:00:46.546Z,63.82
2022-10-10T12:01:45.577Z,63.40
2022-10-10T12:02:45.526Z,63.51
2022-10-10T12:03:45.539Z,63.86
2022-10-10T12:04:45.514Z,63.27
2022-10-10T12:05:45.493Z,62.39
2022-10-10T12:06:45.477Z,63.16
2022-10-10T12:07:45.485Z,62.67
2022-10-10T12:08:45.479Z,63.61
2022-10-10T12:09:45.466Z,63.38
2022-10-10T12:10:45.445Z,63.56
2022-10-10T12:11:45.427Z,63.29
2022-10-10T12:12:45.418Z,63.15
2022-10-10T12:13:45.433Z,62.84
2022-10-10T12:14:45.406Z,63.38
2022-10-10T12:15:49.872Z,63.92
2022-10-10T12:16:46.391Z,65.16
2022-10-10T12:17:45.371Z,63.75
2022-10-10T12:18:45.381Z,64.16
2022-10-10T12:19:45.356Z,61.92
2022-10-10T12:20:45.349Z,64.22
2022-10-10T12:21:45.332Z,63.13
2022-10-10T12:22:45.329Z,62.86
2022-10-10T12:24:05.704Z,61.69
2022-10-10T12:24:48.425Z,61.91
2022-10-10T12:25:46.304Z,63.75
2022-10-10T12:26:45.373Z,64.58
2022-10-10T12:27:45.264Z,63.36
2022-10-10T12:28:45.310Z,63.64
2022-10-10T12:29:50.079Z,63.62
2022-10-10T12:30:47.257Z,63.67
2022-10-10T12:31:45.227Z,64.08
2022-10-10T12:32:45.222Z,62.79
2022-10-10T12:33:45.226Z,62.61
2022-10-10T12:34:45.207Z,62.75
2022-10-10T12:35:45.194Z,64.39
2022-10-10T12:36:45.183Z,63.28
2022-10-10T12:37:45.175Z,63.51
2022-10-10T12:38:45.192Z,63.22
2022-10-10T12:39:45.161Z,62.19
2022-10-10T12:40:45.148Z,61.89
2022-10-10T12:41:47.563Z,63.08
2022-10-10T12:42:46.129Z,63.08
2022-10-10T12:43:45.134Z,63.84
2022-10-10T12:44:45.111Z,62.61
2022-10-10T12:45:45.101Z,63.15
2022-10-10T12:46:45.093Z,62.82
2022-10-10T12:48:05.374Z,62.31
2022-10-10T12:48:47.099Z,63.15
2022-10-10T12:49:45.061Z,64.14
2022-10-10T12:50:45.056Z,64.51
2022-10-10T12:51:45.059Z,63.24
2022-10-10T12:52:45.032Z,63.40
2022-10-10T12:53:45.038Z,62.97
2022-10-10T12:54:45.015Z,63.03